Impacts METAR Board
IDs:

KBCE - Bryce Canyon Arpt, UT, US

Updated at: 0200 UTC 20 Sep 2020
Potential Impact None Slight Moderate High
Time 19/14Z 19/15Z 19/16Z 19/17Z 19/18Z 19/19Z 19/20Z 19/21Z 19/22Z 19/23Z 20/00Z 20/01Z 20/02Z
Temp42 52 65 69 70 75 72 74 75 75 74 70 65
Dewpt24 27 28 30 28 29 29 27 27 25 27 27 27
Altim30.28 30.29 30.29 30.28 30.28 30.26 30.24 30.22 30.21 30.20 30.19 30.20 30.22
VIS10 10 10 10 10 10 10 10 10 10 10 10 10
CIG-- -- -- -- 100 95 100 -- -- -- -- -- --
CoverCLRCLRCLRCLRBKNBKNBKNSCTFEWCLRCLRCLRCLR
FltCatVFRVFRVFRVFRVFRVFRVFRVFRVFRVFRVFRVFRVFR
WX--------------------------
WDir250240150150190210220230240230260230260
WSpd6 3 12 16 18 21 17 19 18 19 14 14 10
WGst-- -- -- 22 26 28 31 26 30 28 26 21 --
Raw hourly METARs
KBCE 191353Z AUTO 25006KT 10SM CLR 06/M04 A3028 RMK AO2 SLP164 T00561044
KBCE 191453Z AUTO 24003KT 10SM CLR 11/M03 A3029 RMK AO2 SLP158 T01111028 53006
KBCE 191553Z AUTO 15012KT 10SM CLR 18/M02 A3029 RMK AO2 SLP146 T01831022
KBCE 191653Z AUTO 15016G22KT 10SM CLR 21/M01 A3028 RMK AO2 SLP137 T02061011
KBCE 191753Z AUTO 19018G26KT 10SM BKN100 21/M02 A3028 RMK AO2 PK WND 19026/1753 SLP144 T02111022 10217 20033 56002
KBCE 191853Z AUTO 21021G28KT 10SM BKN095 24/M02 A3026 RMK AO2 PK WND 21028/1850 SLP131 T02391017
KBCE 191953Z AUTO 22017G31KT 10SM BKN100 22/M02 A3024 RMK AO2 PK WND 21032/1929 SLP127 T02221017
KBCE 192053Z AUTO 23019G26KT 10SM SCT100 23/M03 A3022 RMK AO2 PK WND 21029/2037 SLP118 T02331028 58016
KBCE 192153Z AUTO 24018G30KT 10SM FEW100 24/M03 A3021 RMK AO2 PK WND 22035/2102 SLP094 T02391028
KBCE 192253Z AUTO 23019G28KT 10SM CLR 24/M04 A3020 RMK AO2 PK WND 24032/2208 SLP111 T02391039
KBCE 192353Z AUTO 26014G26KT 10SM CLR 23/M03 A3019 RMK AO2 PK WND 26028/2304 SLP117 T02331028 10250 20211 56008
KBCE 200053Z AUTO 23014G21KT 10SM CLR 21/M03 A3020 RMK AO2 PK WND 25026/0010 SLP124 T02111028
KBCE 200153Z AUTO 26010KT 10SM CLR 18/M03 A3022 RMK AO2 SLP135 T01831028



Page loaded:  02:31 UTC  |   07:31 PM Pacific  |   08:31 PM Mountain  |   09:31 PM Central  |   10:31 PM Eastern

 

ADVISORIES

FORECASTS

FORECASTS

OBSERVATIONS

USER TOOLS

ABOUT US